Aviation Digital Data Service (ADDS)

Output produced by METARs form (1024 UTC 19 February 2019)
found at http://www.aviationweather.gov/metar/data/
 
METAR text: NZAA 191000Z AUTO 00000KT 9999 NCD 19/16 Q1015 NOSIG
Conditions at: NZAA (AUCKLAND INTL AR, NZ) observed 1000 UTC 19 February 2019
Temperature: 19.0°C (66°F)
Dewpoint: 16.0°C (61°F) [RH = 83%]
Pressure (altimeter): 29.97 inches Hg (1015.0 mb)
Winds: calm
Visibility: 6 or more miles (10+ km)
Ceiling: at least 12,000 feet AGL
Clouds: sky clear below 12,000 feet AGL
Weather: no significant weather observed at this time

METAR text: NZAA 190930Z AUTO 18002KT 9999 NCD 19/15 Q1015 NOSIG
Conditions at: NZAA (AUCKLAND INTL AR, NZ) observed 0930 UTC 19 February 2019
Temperature: 19.0°C (66°F)
Dewpoint: 15.0°C (59°F) [RH = 78%]
Pressure (altimeter): 29.97 inches Hg (1015.0 mb)
Winds: from the S (180 degrees) at 2 MPH (2 knots; 1.0 m/s)
Visibility: 6 or more miles (10+ km)
Ceiling: at least 12,000 feet AGL
Clouds: sky clear below 12,000 feet AGL
Weather: no significant weather observed at this time

METAR text: NZAA 190900Z AUTO 18003KT 9999 NCD 19/15 Q1015 NOSIG
Conditions at: NZAA (AUCKLAND INTL AR, NZ) observed 0900 UTC 19 February 2019
Temperature: 19.0°C (66°F)
Dewpoint: 15.0°C (59°F) [RH = 78%]
Pressure (altimeter): 29.97 inches Hg (1015.0 mb)
Winds: from the S (180 degrees) at 3 MPH (3 knots; 1.5 m/s)
Visibility: 6 or more miles (10+ km)
Ceiling: at least 12,000 feet AGL
Clouds: sky clear below 12,000 feet AGL
Weather: no significant weather observed at this time

METAR text: NZAA 190830Z AUTO 18003KT 9999 NCD 19/15 Q1015 NOSIG
Conditions at: NZAA (AUCKLAND INTL AR, NZ) observed 0830 UTC 19 February 2019
Temperature: 19.0°C (66°F)
Dewpoint: 15.0°C (59°F) [RH = 78%]
Pressure (altimeter): 29.97 inches Hg (1015.0 mb)
Winds: from the S (180 degrees) at 3 MPH (3 knots; 1.5 m/s)
Visibility: 6 or more miles (10+ km)
Ceiling: at least 12,000 feet AGL
Clouds: sky clear below 12,000 feet AGL
Weather: no significant weather observed at this time

METAR text: NZAA 190800Z AUTO 23005KT 9999 NCD 20/15 Q1014 NOSIG
Conditions at: NZAA (AUCKLAND INTL AR, NZ) observed 0800 UTC 19 February 2019
Temperature: 20.0°C (68°F)
Dewpoint: 15.0°C (59°F) [RH = 73%]
Pressure (altimeter): 29.94 inches Hg (1014.0 mb)
Winds: from the SW (230 degrees) at 6 MPH (5 knots; 2.6 m/s)
Visibility: 6 or more miles (10+ km)
Ceiling: at least 12,000 feet AGL
Clouds: sky clear below 12,000 feet AGL
Weather: no significant weather observed at this time

METAR text: NZAA 190730Z AUTO 22007KT 9999 NCD 20/15 Q1014 NOSIG
Conditions at: NZAA (AUCKLAND INTL AR, NZ) observed 0730 UTC 19 February 2019
Temperature: 20.0°C (68°F)
Dewpoint: 15.0°C (59°F) [RH = 73%]
Pressure (altimeter): 29.94 inches Hg (1014.0 mb)
Winds: from the SW (220 degrees) at 8 MPH (7 knots; 3.6 m/s)
Visibility: 6 or more miles (10+ km)
Ceiling: at least 12,000 feet AGL
Clouds: sky clear below 12,000 feet AGL
Weather: no significant weather observed at this time

METAR text: NZAA 190700Z AUTO 23007KT 9999 NCD 22/14 Q1014 NOSIG
Conditions at: NZAA (AUCKLAND INTL AR, NZ) observed 0700 UTC 19 February 2019
Temperature: 22.0°C (72°F)
Dewpoint: 14.0°C (57°F) [RH = 60%]
Pressure (altimeter): 29.94 inches Hg (1014.0 mb)
Winds: from the SW (230 degrees) at 8 MPH (7 knots; 3.6 m/s)
Visibility: 6 or more miles (10+ km)
Ceiling: at least 12,000 feet AGL
Clouds: sky clear below 12,000 feet AGL
Weather: no significant weather observed at this time

METAR text: NZAA 190630Z AUTO 22009KT 9999 NCD 23/15 Q1013 NOSIG
Conditions at: NZAA (AUCKLAND INTL AR, NZ) observed 0630 UTC 19 February 2019
Temperature: 23.0°C (73°F)
Dewpoint: 15.0°C (59°F) [RH = 61%]
Pressure (altimeter): 29.91 inches Hg (1013.0 mb)
Winds: from the SW (220 degrees) at 10 MPH (9 knots; 4.6 m/s)
Visibility: 6 or more miles (10+ km)
Ceiling: at least 12,000 feet AGL
Clouds: sky clear below 12,000 feet AGL
Weather: no significant weather observed at this time

METAR text: NZAA 190600Z AUTO 22010KT 9999 FEW043/// 23/15 Q1013 NOSIG
Conditions at: NZAA (AUCKLAND INTL AR, NZ) observed 0600 UTC 19 February 2019
Temperature: 23.0°C (73°F)
Dewpoint: 15.0°C (59°F) [RH = 61%]
Pressure (altimeter): 29.91 inches Hg (1013.0 mb)
Winds: from the SW (220 degrees) at 12 MPH (10 knots; 5.1 m/s)
Visibility: 6 or more miles (10+ km)
Ceiling: at least 12,000 feet AGL
Clouds: few clouds at 4300 feet AGL
Weather: no significant weather observed at this time

METAR text: NZAA 190530Z AUTO 22009KT 9999 NCD 24/16 Q1013 NOSIG
Conditions at: NZAA (AUCKLAND INTL AR, NZ) observed 0530 UTC 19 February 2019
Temperature: 24.0°C (75°F)
Dewpoint: 16.0°C (61°F) [RH = 61%]
Pressure (altimeter): 29.91 inches Hg (1013.0 mb)
Winds: from the SW (220 degrees) at 10 MPH (9 knots; 4.6 m/s)
Visibility: 6 or more miles (10+ km)
Ceiling: at least 12,000 feet AGL
Clouds: sky clear below 12,000 feet AGL
Weather: no significant weather observed at this time

METAR text: NZAA 190500Z AUTO 22009KT 9999 FEW043/// 24/15 Q1013 NOSIG
Conditions at: NZAA (AUCKLAND INTL AR, NZ) observed 0500 UTC 19 February 2019
Temperature: 24.0°C (75°F)
Dewpoint: 15.0°C (59°F) [RH = 57%]
Pressure (altimeter): 29.91 inches Hg (1013.0 mb)
Winds: from the SW (220 degrees) at 10 MPH (9 knots; 4.6 m/s)
Visibility: 6 or more miles (10+ km)
Ceiling: at least 12,000 feet AGL
Clouds: few clouds at 4300 feet AGL
Weather: no significant weather observed at this time

METAR text: NZAA 190430Z AUTO 23010KT 9999 NCD 24/15 Q1013 NOSIG
Conditions at: NZAA (AUCKLAND INTL AR, NZ) observed 0430 UTC 19 February 2019
Temperature: 24.0°C (75°F)
Dewpoint: 15.0°C (59°F) [RH = 57%]
Pressure (altimeter): 29.91 inches Hg (1013.0 mb)
Winds: from the SW (230 degrees) at 12 MPH (10 knots; 5.1 m/s)
Visibility: 6 or more miles (10+ km)
Ceiling: at least 12,000 feet AGL
Clouds: sky clear below 12,000 feet AGL
Weather: no significant weather observed at this time

METAR text: NZAA 190400Z AUTO 22011KT 9999 NCD 24/15 Q1013 NOSIG
Conditions at: NZAA (AUCKLAND INTL AR, NZ) observed 0400 UTC 19 February 2019
Temperature: 24.0°C (75°F)
Dewpoint: 15.0°C (59°F) [RH = 57%]
Pressure (altimeter): 29.91 inches Hg (1013.0 mb)
Winds: from the SW (220 degrees) at 13 MPH (11 knots; 5.7 m/s)
Visibility: 6 or more miles (10+ km)
Ceiling: at least 12,000 feet AGL
Clouds: sky clear below 12,000 feet AGL
Weather: no significant weather observed at this time

METAR text: NZAA 190330Z AUTO 22011KT 9999 NCD 24/15 Q1014 NOSIG
Conditions at: NZAA (AUCKLAND INTL AR, NZ) observed 0330 UTC 19 February 2019
Temperature: 24.0°C (75°F)
Dewpoint: 15.0°C (59°F) [RH = 57%]
Pressure (altimeter): 29.94 inches Hg (1014.0 mb)
Winds: from the SW (220 degrees) at 13 MPH (11 knots; 5.7 m/s)
Visibility: 6 or more miles (10+ km)
Ceiling: at least 12,000 feet AGL
Clouds: sky clear below 12,000 feet AGL
Weather: no significant weather observed at this time

METAR text: NZAA 190300Z AUTO 23010KT 9999 NCD 24/15 Q1014 NOSIG
Conditions at: NZAA (AUCKLAND INTL AR, NZ) observed 0300 UTC 19 February 2019
Temperature: 24.0°C (75°F)
Dewpoint: 15.0°C (59°F) [RH = 57%]
Pressure (altimeter): 29.94 inches Hg (1014.0 mb)
Winds: from the SW (230 degrees) at 12 MPH (10 knots; 5.1 m/s)
Visibility: 6 or more miles (10+ km)
Ceiling: at least 12,000 feet AGL
Clouds: sky clear below 12,000 feet AGL
Weather: no significant weather observed at this time

METAR text: NZAA 190230Z AUTO 23009KT 9999 NCD 24/15 Q1014 NOSIG
Conditions at: NZAA (AUCKLAND INTL AR, NZ) observed 0230 UTC 19 February 2019
Temperature: 24.0°C (75°F)
Dewpoint: 15.0°C (59°F) [RH = 57%]
Pressure (altimeter): 29.94 inches Hg (1014.0 mb)
Winds: from the SW (230 degrees) at 10 MPH (9 knots; 4.6 m/s)
Visibility: 6 or more miles (10+ km)
Ceiling: at least 12,000 feet AGL
Clouds: sky clear below 12,000 feet AGL
Weather: no significant weather observed at this time

METAR text: NZAA 190200Z AUTO 23009KT 9999 NCD 24/15 Q1014 NOSIG
Conditions at: NZAA (AUCKLAND INTL AR, NZ) observed 0200 UTC 19 February 2019
Temperature: 24.0°C (75°F)
Dewpoint: 15.0°C (59°F) [RH = 57%]
Pressure (altimeter): 29.94 inches Hg (1014.0 mb)
Winds: from the SW (230 degrees) at 10 MPH (9 knots; 4.6 m/s)
Visibility: 6 or more miles (10+ km)
Ceiling: at least 12,000 feet AGL
Clouds: sky clear below 12,000 feet AGL
Weather: no significant weather observed at this time

METAR text: NZAA 190130Z AUTO 24007KT 200V280 9999 NCD 24/14 Q1015 NOSIG
Conditions at: NZAA (AUCKLAND INTL AR, NZ) observed 0130 UTC 19 February 2019
Temperature: 24.0°C (75°F)
Dewpoint: 14.0°C (57°F) [RH = 54%]
Pressure (altimeter): 29.97 inches Hg (1015.0 mb)
Winds: from the WSW (240 degrees) at 8 MPH (7 knots; 3.6 m/s)
Visibility: 6 or more miles (10+ km)
Ceiling: at least 12,000 feet AGL
Clouds: sky clear below 12,000 feet AGL
Weather: no significant weather observed at this time

METAR text: NZAA 190100Z AUTO 23007KT 190V260 9999 FEW037/// 24/14 Q1015 NOSIG
Conditions at: NZAA (AUCKLAND INTL AR, NZ) observed 0100 UTC 19 February 2019
Temperature: 24.0°C (75°F)
Dewpoint: 14.0°C (57°F) [RH = 54%]
Pressure (altimeter): 29.97 inches Hg (1015.0 mb)
Winds: from the SW (230 degrees) at 8 MPH (7 knots; 3.6 m/s)
Visibility: 6 or more miles (10+ km)
Ceiling: at least 12,000 feet AGL
Clouds: few clouds at 3700 feet AGL
Weather: no significant weather observed at this time

METAR text: NZAA 190030Z AUTO 23005KT 150V260 9999 SCT037/// 24/14 Q1015 NOSIG
Conditions at: NZAA (AUCKLAND INTL AR, NZ) observed 0030 UTC 19 February 2019
Temperature: 24.0°C (75°F)
Dewpoint: 14.0°C (57°F) [RH = 54%]
Pressure (altimeter): 29.97 inches Hg (1015.0 mb)
Winds: from the SW (230 degrees) at 6 MPH (5 knots; 2.6 m/s)
Visibility: 6 or more miles (10+ km)
Ceiling: at least 12,000 feet AGL
Clouds: scattered clouds at 3700 feet AGL
Weather: no significant weather observed at this time

METAR text: NZAA 190000Z AUTO 24008KT 210V280 9999 NCD 22/14 Q1015 NOSIG
Conditions at: NZAA (AUCKLAND INTL AR, NZ) observed 0000 UTC 19 February 2019
Temperature: 22.0°C (72°F)
Dewpoint: 14.0°C (57°F) [RH = 60%]
Pressure (altimeter): 29.97 inches Hg (1015.0 mb)
Winds: from the WSW (240 degrees) at 9 MPH (8 knots; 4.1 m/s)
Visibility: 6 or more miles (10+ km)
Ceiling: at least 12,000 feet AGL
Clouds: sky clear below 12,000 feet AGL
Weather: no significant weather observed at this time

METAR text: NZAA 182330Z AUTO 25006KT 210V290 9999 NCD 23/14 Q1016 NOSIG
Conditions at: NZAA (AUCKLAND INTL AR, NZ) observed 2330 UTC 18 February 2019
Temperature: 23.0°C (73°F)
Dewpoint: 14.0°C (57°F) [RH = 57%]
Pressure (altimeter): 30.00 inches Hg (1016.0 mb)
Winds: from the WSW (250 degrees) at 7 MPH (6 knots; 3.1 m/s)
Visibility: 6 or more miles (10+ km)
Ceiling: at least 12,000 feet AGL
Clouds: sky clear below 12,000 feet AGL
Weather: no significant weather observed at this time

METAR text: NZAA 182300Z AUTO 22005KT 170V280 9999 BKN031/// 23/15 Q1016 NOSIG
Conditions at: NZAA (AUCKLAND INTL AR, NZ) observed 2300 UTC 18 February 2019
Temperature: 23.0°C (73°F)
Dewpoint: 15.0°C (59°F) [RH = 61%]
Pressure (altimeter): 30.00 inches Hg (1016.0 mb)
Winds: from the SW (220 degrees) at 6 MPH (5 knots; 2.6 m/s)
Visibility: 6 or more miles (10+ km)
Ceiling: 3100 feet AGL
Clouds: broken clouds at 3100 feet AGL
Weather: no significant weather observed at this time

METAR text: NZAA 182230Z AUTO 23006KT 180V270 9999 OVC030/// 21/14 Q1016 NOSIG
Conditions at: NZAA (AUCKLAND INTL AR, NZ) observed 2230 UTC 18 February 2019
Temperature: 21.0°C (70°F)
Dewpoint: 14.0°C (57°F) [RH = 64%]
Pressure (altimeter): 30.00 inches Hg (1016.0 mb)
Winds: from the SW (230 degrees) at 7 MPH (6 knots; 3.1 m/s)
Visibility: 6 or more miles (10+ km)
Ceiling: 3000 feet AGL
Clouds: overcast cloud deck at 3000 feet AGL
Weather: no significant weather observed at this time

METAR text: NZAA 182200Z AUTO 20004KT 120V240 9999 OVC030/// 21/14 Q1016 NOSIG
Conditions at: NZAA (AUCKLAND INTL AR, NZ) observed 2200 UTC 18 February 2019
Temperature: 21.0°C (70°F)
Dewpoint: 14.0°C (57°F) [RH = 64%]
Pressure (altimeter): 30.00 inches Hg (1016.0 mb)
Winds: from the SSW (200 degrees) at 5 MPH (4 knots; 2.1 m/s)
Visibility: 6 or more miles (10+ km)
Ceiling: 3000 feet AGL
Clouds: overcast cloud deck at 3000 feet AGL
Weather: no significant weather observed at this time

METAR text: NZAA 182130Z AUTO 17005KT 120V210 9999 OVC030/// 21/14 Q1016 NOSIG
Conditions at: NZAA (AUCKLAND INTL AR, NZ) observed 2130 UTC 18 February 2019
Temperature: 21.0°C (70°F)
Dewpoint: 14.0°C (57°F) [RH = 64%]
Pressure (altimeter): 30.00 inches Hg (1016.0 mb)
Winds: from the S (170 degrees) at 6 MPH (5 knots; 2.6 m/s)
Visibility: 6 or more miles (10+ km)
Ceiling: 3000 feet AGL
Clouds: overcast cloud deck at 3000 feet AGL
Weather: no significant weather observed at this time

METAR text: NZAA 182100Z AUTO 15004KT 110V230 9999 OVC030/// 20/14 Q1016 NOSIG
Conditions at: NZAA (AUCKLAND INTL AR, NZ) observed 2100 UTC 18 February 2019
Temperature: 20.0°C (68°F)
Dewpoint: 14.0°C (57°F) [RH = 68%]
Pressure (altimeter): 30.00 inches Hg (1016.0 mb)
Winds: from the SSE (150 degrees) at 5 MPH (4 knots; 2.1 m/s)
Visibility: 6 or more miles (10+ km)
Ceiling: 3000 feet AGL
Clouds: overcast cloud deck at 3000 feet AGL
Weather: no significant weather observed at this time

METAR text: NZAA 182030Z AUTO 15005KT 9999 OVC029/// 20/14 Q1016 NOSIG
Conditions at: NZAA (AUCKLAND INTL AR, NZ) observed 2030 UTC 18 February 2019
Temperature: 20.0°C (68°F)
Dewpoint: 14.0°C (57°F) [RH = 68%]
Pressure (altimeter): 30.00 inches Hg (1016.0 mb)
Winds: from the SSE (150 degrees) at 6 MPH (5 knots; 2.6 m/s)
Visibility: 6 or more miles (10+ km)
Ceiling: 2900 feet AGL
Clouds: overcast cloud deck at 2900 feet AGL
Weather: no significant weather observed at this time

METAR text: NZAA 182000Z AUTO 19006KT 9999 OVC030/// 20/14 Q1016 NOSIG
Conditions at: NZAA (AUCKLAND INTL AR, NZ) observed 2000 UTC 18 February 2019
Temperature: 20.0°C (68°F)
Dewpoint: 14.0°C (57°F) [RH = 68%]
Pressure (altimeter): 30.00 inches Hg (1016.0 mb)
Winds: from the S (190 degrees) at 7 MPH (6 knots; 3.1 m/s)
Visibility: 6 or more miles (10+ km)
Ceiling: 3000 feet AGL
Clouds: overcast cloud deck at 3000 feet AGL
Weather: no significant weather observed at this time

METAR text: NZAA 181930Z AUTO 18006KT 9999 OVC030/// 19/14 Q1016 NOSIG
Conditions at: NZAA (AUCKLAND INTL AR, NZ) observed 1930 UTC 18 February 2019
Temperature: 19.0°C (66°F)
Dewpoint: 14.0°C (57°F) [RH = 73%]
Pressure (altimeter): 30.00 inches Hg (1016.0 mb)
Winds: from the S (180 degrees) at 7 MPH (6 knots; 3.1 m/s)
Visibility: 6 or more miles (10+ km)
Ceiling: 3000 feet AGL
Clouds: overcast cloud deck at 3000 feet AGL
Weather: no significant weather observed at this time

METAR text: NZAA 181900Z AUTO 16005KT 120V200 9999 OVC030/// 19/14 Q1016 NOSIG
Conditions at: NZAA (AUCKLAND INTL AR, NZ) observed 1900 UTC 18 February 2019
Temperature: 19.0°C (66°F)
Dewpoint: 14.0°C (57°F) [RH = 73%]
Pressure (altimeter): 30.00 inches Hg (1016.0 mb)
Winds: from the SSE (160 degrees) at 6 MPH (5 knots; 2.6 m/s)
Visibility: 6 or more miles (10+ km)
Ceiling: 3000 feet AGL
Clouds: overcast cloud deck at 3000 feet AGL
Weather: no significant weather observed at this time

METAR text: NZAA 181830Z AUTO 15004KT 9999 OVC030/// 18/14 Q1016 NOSIG
Conditions at: NZAA (AUCKLAND INTL AR, NZ) observed 1830 UTC 18 February 2019
Temperature: 18.0°C (64°F)
Dewpoint: 14.0°C (57°F) [RH = 77%]
Pressure (altimeter): 30.00 inches Hg (1016.0 mb)
Winds: from the SSE (150 degrees) at 5 MPH (4 knots; 2.1 m/s)
Visibility: 6 or more miles (10+ km)
Ceiling: 3000 feet AGL
Clouds: overcast cloud deck at 3000 feet AGL
Weather: no significant weather observed at this time

METAR text: NZAA 181800Z AUTO 16004KT 9999 OVC030/// 18/14 Q1015 NOSIG
Conditions at: NZAA (AUCKLAND INTL AR, NZ) observed 1800 UTC 18 February 2019
Temperature: 18.0°C (64°F)
Dewpoint: 14.0°C (57°F) [RH = 77%]
Pressure (altimeter): 29.97 inches Hg (1015.0 mb)
Winds: from the SSE (160 degrees) at 5 MPH (4 knots; 2.1 m/s)
Visibility: 6 or more miles (10+ km)
Ceiling: 3000 feet AGL
Clouds: overcast cloud deck at 3000 feet AGL
Weather: no significant weather observed at this time

METAR text: NZAA 181730Z AUTO 18004KT 140V230 9999 OVC030/// 19/14 Q1015 NOSIG
Conditions at: NZAA (AUCKLAND INTL AR, NZ) observed 1730 UTC 18 February 2019
Temperature: 19.0°C (66°F)
Dewpoint: 14.0°C (57°F) [RH = 73%]
Pressure (altimeter): 29.97 inches Hg (1015.0 mb)
Winds: from the S (180 degrees) at 5 MPH (4 knots; 2.1 m/s)
Visibility: 6 or more miles (10+ km)
Ceiling: 3000 feet AGL
Clouds: overcast cloud deck at 3000 feet AGL
Weather: no significant weather observed at this time

METAR text: NZAA 181700Z AUTO 15002KT 9999 OVC030/// 18/15 Q1015 NOSIG
Conditions at: NZAA (AUCKLAND INTL AR, NZ) observed 1700 UTC 18 February 2019
Temperature: 18.0°C (64°F)
Dewpoint: 15.0°C (59°F) [RH = 83%]
Pressure (altimeter): 29.97 inches Hg (1015.0 mb)
Winds: from the SSE (150 degrees) at 2 MPH (2 knots; 1.0 m/s)
Visibility: 6 or more miles (10+ km)
Ceiling: 3000 feet AGL
Clouds: overcast cloud deck at 3000 feet AGL
Weather: no significant weather observed at this time

METAR text: NZAA 181630Z AUTO 15003KT 9999 OVC031/// 18/14 Q1015 NOSIG
Conditions at: NZAA (AUCKLAND INTL AR, NZ) observed 1630 UTC 18 February 2019
Temperature: 18.0°C (64°F)
Dewpoint: 14.0°C (57°F) [RH = 77%]
Pressure (altimeter): 29.97 inches Hg (1015.0 mb)
Winds: from the SSE (150 degrees) at 3 MPH (3 knots; 1.5 m/s)
Visibility: 6 or more miles (10+ km)
Ceiling: 3100 feet AGL
Clouds: overcast cloud deck at 3100 feet AGL
Weather: no significant weather observed at this time

METAR text: NZAA 181600Z AUTO 12004KT 9999 OVC031/// 18/14 Q1015 NOSIG
Conditions at: NZAA (AUCKLAND INTL AR, NZ) observed 1600 UTC 18 February 2019
Temperature: 18.0°C (64°F)
Dewpoint: 14.0°C (57°F) [RH = 77%]
Pressure (altimeter): 29.97 inches Hg (1015.0 mb)
Winds: from the ESE (120 degrees) at 5 MPH (4 knots; 2.1 m/s)
Visibility: 6 or more miles (10+ km)
Ceiling: 3100 feet AGL
Clouds: overcast cloud deck at 3100 feet AGL
Weather: no significant weather observed at this time

METAR text: NZAA 181530Z AUTO 17005KT 9999 OVC029/// 19/14 Q1015 NOSIG
Conditions at: NZAA (AUCKLAND INTL AR, NZ) observed 1530 UTC 18 February 2019
Temperature: 19.0°C (66°F)
Dewpoint: 14.0°C (57°F) [RH = 73%]
Pressure (altimeter): 29.97 inches Hg (1015.0 mb)
Winds: from the S (170 degrees) at 6 MPH (5 knots; 2.6 m/s)
Visibility: 6 or more miles (10+ km)
Ceiling: 2900 feet AGL
Clouds: overcast cloud deck at 2900 feet AGL
Weather: no significant weather observed at this time

METAR text: NZAA 181500Z AUTO 20005KT 160V230 9999 OVC029/// 19/14 Q1015 NOSIG
Conditions at: NZAA (AUCKLAND INTL AR, NZ) observed 1500 UTC 18 February 2019
Temperature: 19.0°C (66°F)
Dewpoint: 14.0°C (57°F) [RH = 73%]
Pressure (altimeter): 29.97 inches Hg (1015.0 mb)
Winds: from the SSW (200 degrees) at 6 MPH (5 knots; 2.6 m/s)
Visibility: 6 or more miles (10+ km)
Ceiling: 2900 feet AGL
Clouds: overcast cloud deck at 2900 feet AGL
Weather: no significant weather observed at this time

METAR text: NZAA 181430Z AUTO 21008KT 160V240 9999 OVC030/// 19/13 Q1015 NOSIG
Conditions at: NZAA (AUCKLAND INTL AR, NZ) observed 1430 UTC 18 February 2019
Temperature: 19.0°C (66°F)
Dewpoint: 13.0°C (55°F) [RH = 68%]
Pressure (altimeter): 29.97 inches Hg (1015.0 mb)
Winds: from the SSW (210 degrees) at 9 MPH (8 knots; 4.1 m/s)
Visibility: 6 or more miles (10+ km)
Ceiling: 3000 feet AGL
Clouds: overcast cloud deck at 3000 feet AGL
Weather: no significant weather observed at this time

METAR text: NZAA 181400Z AUTO 21008KT 170V240 9999 BKN029/// 19/13 Q1015 NOSIG
Conditions at: NZAA (AUCKLAND INTL AR, NZ) observed 1400 UTC 18 February 2019
Temperature: 19.0°C (66°F)
Dewpoint: 13.0°C (55°F) [RH = 68%]
Pressure (altimeter): 29.97 inches Hg (1015.0 mb)
Winds: from the SSW (210 degrees) at 9 MPH (8 knots; 4.1 m/s)
Visibility: 6 or more miles (10+ km)
Ceiling: 2900 feet AGL
Clouds: broken clouds at 2900 feet AGL
Weather: no significant weather observed at this time

METAR text: NZAA 181330Z AUTO 21010KT 180V240 9999 BKN030/// 19/13 Q1016 BECMG VRB02KT
Conditions at: NZAA (AUCKLAND INTL AR, NZ) observed 1330 UTC 18 February 2019
Temperature: 19.0°C (66°F)
Dewpoint: 13.0°C (55°F) [RH = 68%]
Pressure (altimeter): 30.00 inches Hg (1016.0 mb)
Winds: from the SSW (210 degrees) at 12 MPH (10 knots; 5.1 m/s)
Visibility: 6 or more miles (10+ km)
Ceiling: 3000 feet AGL
Clouds: broken clouds at 3000 feet AGL
Weather: no significant weather observed at this time

METAR text: NZAA 181300Z AUTO 23009KT 9999 BKN030/// 19/13 Q1016 NOSIG
Conditions at: NZAA (AUCKLAND INTL AR, NZ) observed 1300 UTC 18 February 2019
Temperature: 19.0°C (66°F)
Dewpoint: 13.0°C (55°F) [RH = 68%]
Pressure (altimeter): 30.00 inches Hg (1016.0 mb)
Winds: from the SW (230 degrees) at 10 MPH (9 knots; 4.6 m/s)
Visibility: 6 or more miles (10+ km)
Ceiling: 3000 feet AGL
Clouds: broken clouds at 3000 feet AGL
Weather: no significant weather observed at this time

METAR text: NZAA 181230Z AUTO 22008KT 190V260 9999 OVC031/// 19/13 Q1016 NOSIG
Conditions at: NZAA (AUCKLAND INTL AR, NZ) observed 1230 UTC 18 February 2019
Temperature: 19.0°C (66°F)
Dewpoint: 13.0°C (55°F) [RH = 68%]
Pressure (altimeter): 30.00 inches Hg (1016.0 mb)
Winds: from the SW (220 degrees) at 9 MPH (8 knots; 4.1 m/s)
Visibility: 6 or more miles (10+ km)
Ceiling: 3100 feet AGL
Clouds: overcast cloud deck at 3100 feet AGL
Weather: no significant weather observed at this time

METAR text: NZAA 181200Z AUTO 21010KT 9999 OVC032/// 19/13 Q1016 BECMG VRB02KT
Conditions at: NZAA (AUCKLAND INTL AR, NZ) observed 1200 UTC 18 February 2019
Temperature: 19.0°C (66°F)
Dewpoint: 13.0°C (55°F) [RH = 68%]
Pressure (altimeter): 30.00 inches Hg (1016.0 mb)
Winds: from the SSW (210 degrees) at 12 MPH (10 knots; 5.1 m/s)
Visibility: 6 or more miles (10+ km)
Ceiling: 3200 feet AGL
Clouds: overcast cloud deck at 3200 feet AGL
Weather: no significant weather observed at this time

METAR text: NZAA 181130Z AUTO 22009KT 9999 OVC031/// 19/13 Q1016 NOSIG
Conditions at: NZAA (AUCKLAND INTL AR, NZ) observed 1130 UTC 18 February 2019
Temperature: 19.0°C (66°F)
Dewpoint: 13.0°C (55°F) [RH = 68%]
Pressure (altimeter): 30.00 inches Hg (1016.0 mb)
Winds: from the SW (220 degrees) at 10 MPH (9 knots; 4.6 m/s)
Visibility: 6 or more miles (10+ km)
Ceiling: 3100 feet AGL
Clouds: overcast cloud deck at 3100 feet AGL
Weather: no significant weather observed at this time

METAR text: NZAA 181100Z AUTO 20008KT 9999 OVC032/// 19/13 Q1016 NOSIG
Conditions at: NZAA (AUCKLAND INTL AR, NZ) observed 1100 UTC 18 February 2019
Temperature: 19.0°C (66°F)
Dewpoint: 13.0°C (55°F) [RH = 68%]
Pressure (altimeter): 30.00 inches Hg (1016.0 mb)
Winds: from the SSW (200 degrees) at 9 MPH (8 knots; 4.1 m/s)
Visibility: 6 or more miles (10+ km)
Ceiling: 3200 feet AGL
Clouds: overcast cloud deck at 3200 feet AGL
Weather: no significant weather observed at this time

METAR text: NZAA 181030Z AUTO 20009KT 9999 BKN032/// 19/13 Q1016 NOSIG
Conditions at: NZAA (AUCKLAND INTL AR, NZ) observed 1030 UTC 18 February 2019
Temperature: 19.0°C (66°F)
Dewpoint: 13.0°C (55°F) [RH = 68%]
Pressure (altimeter): 30.00 inches Hg (1016.0 mb)
Winds: from the SSW (200 degrees) at 10 MPH (9 knots; 4.6 m/s)
Visibility: 6 or more miles (10+ km)
Ceiling: 3200 feet AGL
Clouds: broken clouds at 3200 feet AGL
Weather: no significant weather observed at this time

METAR text: NZAA 181000Z AUTO 21010KT 9999 BKN032/// 19/13 Q1016 NOSIG
Conditions at: NZAA (AUCKLAND INTL AR, NZ) observed 1000 UTC 18 February 2019
Temperature: 19.0°C (66°F)
Dewpoint: 13.0°C (55°F) [RH = 68%]
Pressure (altimeter): 30.00 inches Hg (1016.0 mb)
Winds: from the SSW (210 degrees) at 12 MPH (10 knots; 5.1 m/s)
Visibility: 6 or more miles (10+ km)
Ceiling: 3200 feet AGL
Clouds: broken clouds at 3200 feet AGL
Weather: no significant weather observed at this time

METAR text: NZAA 180930Z AUTO 21010KT 9999 SCT032/// 19/13 Q1016 NOSIG
Conditions at: NZAA (AUCKLAND INTL AR, NZ) observed 0930 UTC 18 February 2019
Temperature: 19.0°C (66°F)
Dewpoint: 13.0°C (55°F) [RH = 68%]
Pressure (altimeter): 30.00 inches Hg (1016.0 mb)
Winds: from the SSW (210 degrees) at 12 MPH (10 knots; 5.1 m/s)
Visibility: 6 or more miles (10+ km)
Ceiling: at least 12,000 feet AGL
Clouds: scattered clouds at 3200 feet AGL
Weather: no significant weather observed at this time

METAR text: NZAA 180900Z AUTO 21012KT 9999 SCT032/// 19/12 Q1015 BECMG VRB02KT
Conditions at: NZAA (AUCKLAND INTL AR, NZ) observed 0900 UTC 18 February 2019
Temperature: 19.0°C (66°F)
Dewpoint: 12.0°C (54°F) [RH = 64%]
Pressure (altimeter): 29.97 inches Hg (1015.0 mb)
Winds: from the SSW (210 degrees) at 14 MPH (12 knots; 6.2 m/s)
Visibility: 6 or more miles (10+ km)
Ceiling: at least 12,000 feet AGL
Clouds: scattered clouds at 3200 feet AGL
Weather: no significant weather observed at this time

METAR text: NZAA 180830Z AUTO 20011KT 160V230 9999 BKN032/// 19/13 Q1015 BECMG VRB02KT
Conditions at: NZAA (AUCKLAND INTL AR, NZ) observed 0830 UTC 18 February 2019
Temperature: 19.0°C (66°F)
Dewpoint: 13.0°C (55°F) [RH = 68%]
Pressure (altimeter): 29.97 inches Hg (1015.0 mb)
Winds: from the SSW (200 degrees) at 13 MPH (11 knots; 5.7 m/s)
Visibility: 6 or more miles (10+ km)
Ceiling: 3200 feet AGL
Clouds: broken clouds at 3200 feet AGL
Weather: no significant weather observed at this time

METAR text: NZAA 180800Z AUTO 20011KT 9999 BKN032/// 19/13 Q1015 BECMG VRB02KT
Conditions at: NZAA (AUCKLAND INTL AR, NZ) observed 0800 UTC 18 February 2019
Temperature: 19.0°C (66°F)
Dewpoint: 13.0°C (55°F) [RH = 68%]
Pressure (altimeter): 29.97 inches Hg (1015.0 mb)
Winds: from the SSW (200 degrees) at 13 MPH (11 knots; 5.7 m/s)
Visibility: 6 or more miles (10+ km)
Ceiling: 3200 feet AGL
Clouds: broken clouds at 3200 feet AGL
Weather: no significant weather observed at this time

METAR text: NZAA 180730Z AUTO 21011KT 9999 SCT033/// 19/13 Q1015 BECMG VRB02KT
Conditions at: NZAA (AUCKLAND INTL AR, NZ) observed 0730 UTC 18 February 2019
Temperature: 19.0°C (66°F)
Dewpoint: 13.0°C (55°F) [RH = 68%]
Pressure (altimeter): 29.97 inches Hg (1015.0 mb)
Winds: from the SSW (210 degrees) at 13 MPH (11 knots; 5.7 m/s)
Visibility: 6 or more miles (10+ km)
Ceiling: at least 12,000 feet AGL
Clouds: scattered clouds at 3300 feet AGL
Weather: no significant weather observed at this time

METAR text: NZAA 180700Z AUTO 22011KT 9999 NCD 20/13 Q1014 BECMG VRB02KT
Conditions at: NZAA (AUCKLAND INTL AR, NZ) observed 0700 UTC 18 February 2019
Temperature: 20.0°C (68°F)
Dewpoint: 13.0°C (55°F) [RH = 64%]
Pressure (altimeter): 29.94 inches Hg (1014.0 mb)
Winds: from the SW (220 degrees) at 13 MPH (11 knots; 5.7 m/s)
Visibility: 6 or more miles (10+ km)
Ceiling: at least 12,000 feet AGL
Clouds: sky clear below 12,000 feet AGL
Weather: no significant weather observed at this time

METAR text: NZAA 180630Z AUTO 22012KT 9999 NCD 20/13 Q1014 BECMG FM0700 VRB02KT
Conditions at: NZAA (AUCKLAND INTL AR, NZ) observed 0630 UTC 18 February 2019
Temperature: 20.0°C (68°F)
Dewpoint: 13.0°C (55°F) [RH = 64%]
Pressure (altimeter): 29.94 inches Hg (1014.0 mb)
Winds: from the SW (220 degrees) at 14 MPH (12 knots; 6.2 m/s)
Visibility: 6 or more miles (10+ km)
Ceiling: at least 12,000 feet AGL
Clouds: sky clear below 12,000 feet AGL
Weather: no significant weather observed at this time

METAR text: NZAA 180600Z AUTO 22012KT 9999 NCD 21/13 Q1014 BECMG FM0700 VRB02KT
Conditions at: NZAA (AUCKLAND INTL AR, NZ) observed 0600 UTC 18 February 2019
Temperature: 21.0°C (70°F)
Dewpoint: 13.0°C (55°F) [RH = 60%]
Pressure (altimeter): 29.94 inches Hg (1014.0 mb)
Winds: from the SW (220 degrees) at 14 MPH (12 knots; 6.2 m/s)
Visibility: 6 or more miles (10+ km)
Ceiling: at least 12,000 feet AGL
Clouds: sky clear below 12,000 feet AGL
Weather: no significant weather observed at this time

METAR text: NZAA 180530Z AUTO 22012KT 9999 NCD 22/14 Q1014 NOSIG
Conditions at: NZAA (AUCKLAND INTL AR, NZ) observed 0530 UTC 18 February 2019
Temperature: 22.0°C (72°F)
Dewpoint: 14.0°C (57°F) [RH = 60%]
Pressure (altimeter): 29.94 inches Hg (1014.0 mb)
Winds: from the SW (220 degrees) at 14 MPH (12 knots; 6.2 m/s)
Visibility: 6 or more miles (10+ km)
Ceiling: at least 12,000 feet AGL
Clouds: sky clear below 12,000 feet AGL
Weather: no significant weather observed at this time

METAR text: NZAA 180500Z AUTO 22012KT 9999 NCD 22/14 Q1014 NOSIG
Conditions at: NZAA (AUCKLAND INTL AR, NZ) observed 0500 UTC 18 February 2019
Temperature: 22.0°C (72°F)
Dewpoint: 14.0°C (57°F) [RH = 60%]
Pressure (altimeter): 29.94 inches Hg (1014.0 mb)
Winds: from the SW (220 degrees) at 14 MPH (12 knots; 6.2 m/s)
Visibility: 6 or more miles (10+ km)
Ceiling: at least 12,000 feet AGL
Clouds: sky clear below 12,000 feet AGL
Weather: no significant weather observed at this time

METAR text: NZAA 180430Z AUTO 22013KT 9999 NCD 23/14 Q1014 NOSIG
Conditions at: NZAA (AUCKLAND INTL AR, NZ) observed 0430 UTC 18 February 2019
Temperature: 23.0°C (73°F)
Dewpoint: 14.0°C (57°F) [RH = 57%]
Pressure (altimeter): 29.94 inches Hg (1014.0 mb)
Winds: from the SW (220 degrees) at 15 MPH (13 knots; 6.7 m/s)
Visibility: 6 or more miles (10+ km)
Ceiling: at least 12,000 feet AGL
Clouds: sky clear below 12,000 feet AGL
Weather: no significant weather observed at this time

METAR text: NZAA 180400Z AUTO 22012KT 9999 NCD 23/13 Q1014 NOSIG
Conditions at: NZAA (AUCKLAND INTL AR, NZ) observed 0400 UTC 18 February 2019
Temperature: 23.0°C (73°F)
Dewpoint: 13.0°C (55°F) [RH = 53%]
Pressure (altimeter): 29.94 inches Hg (1014.0 mb)
Winds: from the SW (220 degrees) at 14 MPH (12 knots; 6.2 m/s)
Visibility: 6 or more miles (10+ km)
Ceiling: at least 12,000 feet AGL
Clouds: sky clear below 12,000 feet AGL
Weather: no significant weather observed at this time

METAR text: NZAA 180330Z AUTO 22013KT 9999 NCD 23/14 Q1014 NOSIG
Conditions at: NZAA (AUCKLAND INTL AR, NZ) observed 0330 UTC 18 February 2019
Temperature: 23.0°C (73°F)
Dewpoint: 14.0°C (57°F) [RH = 57%]
Pressure (altimeter): 29.94 inches Hg (1014.0 mb)
Winds: from the SW (220 degrees) at 15 MPH (13 knots; 6.7 m/s)
Visibility: 6 or more miles (10+ km)
Ceiling: at least 12,000 feet AGL
Clouds: sky clear below 12,000 feet AGL
Weather: no significant weather observed at this time

METAR text: NZAA 180300Z AUTO 22013KT 9999 NCD 24/14 Q1015 NOSIG
Conditions at: NZAA (AUCKLAND INTL AR, NZ) observed 0300 UTC 18 February 2019
Temperature: 24.0°C (75°F)
Dewpoint: 14.0°C (57°F) [RH = 54%]
Pressure (altimeter): 29.97 inches Hg (1015.0 mb)
Winds: from the SW (220 degrees) at 15 MPH (13 knots; 6.7 m/s)
Visibility: 6 or more miles (10+ km)
Ceiling: at least 12,000 feet AGL
Clouds: sky clear below 12,000 feet AGL
Weather: no significant weather observed at this time

METAR text: NZAA 180230Z AUTO 22013KT 9999 NCD 23/13 Q1015 NOSIG
Conditions at: NZAA (AUCKLAND INTL AR, NZ) observed 0230 UTC 18 February 2019
Temperature: 23.0°C (73°F)
Dewpoint: 13.0°C (55°F) [RH = 53%]
Pressure (altimeter): 29.97 inches Hg (1015.0 mb)
Winds: from the SW (220 degrees) at 15 MPH (13 knots; 6.7 m/s)
Visibility: 6 or more miles (10+ km)
Ceiling: at least 12,000 feet AGL
Clouds: sky clear below 12,000 feet AGL
Weather: no significant weather observed at this time

METAR text: NZAA 180200Z AUTO 23011KT 9999 NCD 24/14 Q1015 NOSIG
Conditions at: NZAA (AUCKLAND INTL AR, NZ) observed 0200 UTC 18 February 2019
Temperature: 24.0°C (75°F)
Dewpoint: 14.0°C (57°F) [RH = 54%]
Pressure (altimeter): 29.97 inches Hg (1015.0 mb)
Winds: from the SW (230 degrees) at 13 MPH (11 knots; 5.7 m/s)
Visibility: 6 or more miles (10+ km)
Ceiling: at least 12,000 feet AGL
Clouds: sky clear below 12,000 feet AGL
Weather: no significant weather observed at this time

METAR text: NZAA 180130Z AUTO 22010KT 9999 NCD 23/14 Q1015 NOSIG
Conditions at: NZAA (AUCKLAND INTL AR, NZ) observed 0130 UTC 18 February 2019
Temperature: 23.0°C (73°F)
Dewpoint: 14.0°C (57°F) [RH = 57%]
Pressure (altimeter): 29.97 inches Hg (1015.0 mb)
Winds: from the SW (220 degrees) at 12 MPH (10 knots; 5.1 m/s)
Visibility: 6 or more miles (10+ km)
Ceiling: at least 12,000 feet AGL
Clouds: sky clear below 12,000 feet AGL
Weather: no significant weather observed at this time

METAR text: NZAA 180100Z AUTO 23010KT 9999 NCD 23/13 Q1015 NOSIG
Conditions at: NZAA (AUCKLAND INTL AR, NZ) observed 0100 UTC 18 February 2019
Temperature: 23.0°C (73°F)
Dewpoint: 13.0°C (55°F) [RH = 53%]
Pressure (altimeter): 29.97 inches Hg (1015.0 mb)
Winds: from the SW (230 degrees) at 12 MPH (10 knots; 5.1 m/s)
Visibility: 6 or more miles (10+ km)
Ceiling: at least 12,000 feet AGL
Clouds: sky clear below 12,000 feet AGL
Weather: no significant weather observed at this time

METAR text: NZAA 180030Z AUTO 22009KT 190V250 9999 NCD 23/14 Q1015 NOSIG
Conditions at: NZAA (AUCKLAND INTL AR, NZ) observed 0030 UTC 18 February 2019
Temperature: 23.0°C (73°F)
Dewpoint: 14.0°C (57°F) [RH = 57%]
Pressure (altimeter): 29.97 inches Hg (1015.0 mb)
Winds: from the SW (220 degrees) at 10 MPH (9 knots; 4.6 m/s)
Visibility: 6 or more miles (10+ km)
Ceiling: at least 12,000 feet AGL
Clouds: sky clear below 12,000 feet AGL
Weather: no significant weather observed at this time

METAR text: NZAA 180000Z AUTO 22009KT 190V250 9999 NCD 23/14 Q1016 NOSIG
Conditions at: NZAA (AUCKLAND INTL AR, NZ) observed 0000 UTC 18 February 2019
Temperature: 23.0°C (73°F)
Dewpoint: 14.0°C (57°F) [RH = 57%]
Pressure (altimeter): 30.00 inches Hg (1016.0 mb)
Winds: from the SW (220 degrees) at 10 MPH (9 knots; 4.6 m/s)
Visibility: 6 or more miles (10+ km)
Ceiling: at least 12,000 feet AGL
Clouds: sky clear below 12,000 feet AGL
Weather: no significant weather observed at this time

METAR text: NZAA 172330Z AUTO 22011KT 9999 FEW032/// 23/14 Q1016 NOSIG
Conditions at: NZAA (AUCKLAND INTL AR, NZ) observed 2330 UTC 17 February 2019
Temperature: 23.0°C (73°F)
Dewpoint: 14.0°C (57°F) [RH = 57%]
Pressure (altimeter): 30.00 inches Hg (1016.0 mb)
Winds: from the SW (220 degrees) at 13 MPH (11 knots; 5.7 m/s)
Visibility: 6 or more miles (10+ km)
Ceiling: at least 12,000 feet AGL
Clouds: few clouds at 3200 feet AGL
Weather: no significant weather observed at this time

METAR text: NZAA 172300Z AUTO 21009KT 170V240 9999 FEW020/// SCT028/// 23/16 Q1016 NOSIG
Conditions at: NZAA (AUCKLAND INTL AR, NZ) observed 2300 UTC 17 February 2019
Temperature: 23.0°C (73°F)
Dewpoint: 16.0°C (61°F) [RH = 65%]
Pressure (altimeter): 30.00 inches Hg (1016.0 mb)
Winds: from the SSW (210 degrees) at 10 MPH (9 knots; 4.6 m/s)
Visibility: 6 or more miles (10+ km)
Ceiling: at least 12,000 feet AGL
Clouds: few clouds at 2000 feet AGL
scattered clouds at 2800 feet AGL
Weather: no significant weather observed at this time

METAR text: NZAA 172230Z AUTO 18006KT 140V220 9999 FEW022/// BKN065/// 21/17 Q1016 NOSIG
Conditions at: NZAA (AUCKLAND INTL AR, NZ) observed 2230 UTC 17 February 2019
Temperature: 21.0°C (70°F)
Dewpoint: 17.0°C (63°F) [RH = 78%]
Pressure (altimeter): 30.00 inches Hg (1016.0 mb)
Winds: from the S (180 degrees) at 7 MPH (6 knots; 3.1 m/s)
Visibility: 6 or more miles (10+ km)
Ceiling: 6500 feet AGL
Clouds: few clouds at 2200 feet AGL
broken clouds at 6500 feet AGL
Weather: no significant weather observed at this time

Forecast for: NZAA (AUCKLAND INTL AR, NZ)
Text: TAF NZAA 190502Z 1906/2006 22010KT 9999 FEW030
Forecast period: 0600 to 0800 UTC 19 February 2019
Forecast type: FROM: standard forecast or significant change
Winds: from the SW (220 degrees) at 12 MPH (10 knots; 5.1 m/s)
Visibility: 6 or more miles 10+ km)
Ceiling: at least 12,000 feet AGL
Clouds: few clouds at 3000 feet AGL
Weather: no significant weather forecast for this period
Text: BECMG 1908/1910 VRB02KT
Forecast period: 0800 UTC 19 February 2019 to 0000 UTC 20 February 2019
Forecast type: BECOMING: Conditions expected to become as follows by 1000 UTC 19 February 2019
Winds: variable direction winds at 2 MPH (2 knots; 1.0 m/s)
Visibility: 6 or more miles 10+ km)
Ceiling: at least 12,000 feet AGL
Clouds: few clouds at 3000 feet AGL
Weather: no significant weather forecast for this period
Text: BECMG 2000/2002 02012KT
Forecast period: 0000 to 0500 UTC 20 February 2019
Forecast type: BECOMING: Conditions expected to become as follows by 0200 UTC 20 February 2019
Winds: from the NNE (20 degrees) at 14 MPH (12 knots; 6.2 m/s)
Visibility: 6 or more miles 10+ km)
Ceiling: at least 12,000 feet AGL
Clouds: few clouds at 3000 feet AGL
Weather: no significant weather forecast for this period
Text: FM200500 VRB02KT 9999 -SHRA BKN030
Forecast period: 0500 to 0600 UTC 20 February 2019
Forecast type: FROM: standard forecast or significant change
Winds: variable direction winds at 2 MPH (2 knots; 1.0 m/s)
Visibility: 6 or more miles 10+ km)
Ceiling: 3000 feet AGL
Clouds: broken clouds at 3000 feet AGL
Weather: -SHRA  (light rain showers)